Flight Track Log - Related Links

Times and Time Zones

All times are in EST time to prevent confusion due to time zone crossing. See the SWA561 flight status page for this flight to view local times or setup timezone preferences in your user account.

Time Position Orientation Groundspeed Altitude Reporting Facility
EST Latitude Longitude Course Direction KTS MPH feet Rate Location/Type
Tue 11:31:40 AM 38.7333 -90.3333 113° Southeast 147 169 1,800  Level Gateway (St. Louis) TRACON
Tue 11:32:34 AM 38.7167 -90.2833 113° Southeast 186 214 4,100 2,948 Climbing Gateway (St. Louis) TRACON
Tue 11:33:36 AM 38.6694 -90.3006 196° South 215 247 7,500 3,145 Climbing Kansas City Center
Tue 11:34:38 AM 38.6836 -90.3931 281° West 267 307 10,600 2,661 Climbing Kansas City Center
Tue 11:35:40 AM 38.7108 -90.5061 287° West 295 339 13,000 3,268 Climbing Kansas City Center
Tue 11:36:41 AM 38.7400 -90.6183 288° West 318 366 17,300 3,415 Climbing Kansas City Center
Tue 11:37:43 AM 38.7703 -90.7375 288° West 338 389 20,000 2,780 Climbing Kansas City Center
Tue 11:38:44 AM 38.8061 -90.8836 288° West 354 407 23,000 1,902 Climbing Kansas City Center
Tue 11:39:46 AM 38.8386 -91.0083 289° West 358 412 23,900 1,403 Climbing Kansas City Center
Tue 11:40:48 AM 38.8700 -91.1278 289° West 361 415 25,900 1,707 Climbing Kansas City Center
Tue 11:41:49 AM 38.9017 -91.2606 287° West 380 437 27,400 1,659 Climbing Kansas City Center
Tue 11:42:51 AM 38.9375 -91.3986 288° West 402 463 29,300 1,984 Climbing Kansas City Center
Tue 11:43:53 AM 38.9706 -91.5389 287° West 408 470 31,500 2,146 Climbing Kansas City Center
Tue 11:44:54 AM 39.0053 -91.6761 288° West 407 468 33,700 2,195 Climbing Kansas City Center
Tue 11:45:56 AM 39.0378 -91.8161 287° West 395 455 36,000 2,390 Climbing Kansas City Center
Tue 11:46:57 AM 39.0742 -91.9647 288° West 370 426 38,600 1,610 Climbing Kansas City Center
Tue 11:47:59 AM 39.1031 -92.0875 287° West 359 413 39,300 677 Climbing Kansas City Center
Tue 11:49:01 AM 39.1211 -92.2167 280° West 364 419 40,000 341 Climbing Kansas City Center
Tue 11:50:02 AM 39.1300 -92.3444 275° West 361 415 40,000  Level Kansas City Center
Tue 11:51:04 AM 39.1394 -92.4731 275° West 360 414 40,000  Level Kansas City Center
Tue 11:52:06 AM 39.1486 -92.6017 275° West 361 415 40,000  Level Kansas City Center
Tue 11:53:07 AM 39.1594 -92.7419 276° West 363 418 40,000  Level Kansas City Center
Tue 11:54:09 AM 39.1686 -92.8714 275° West 364 419 40,000  Level Kansas City Center
Tue 11:55:10 AM 39.1767 -93.0028 275° West 366 421 40,000  Level Kansas City Center
Tue 11:56:12 AM 39.1861 -93.1317 275° West 365 420 40,000  Level Kansas City Center
Tue 11:57:14 AM 39.1947 -93.2586 275° West 360 414 40,000  Level Kansas City Center
Tue 11:58:15 AM 39.2033 -93.3869 275° West 360 414 40,000  Level Kansas City Center
Tue 11:59:17 AM 39.2131 -93.5292 275° West 362 417 40,000  Level Kansas City Center
Tue 12:00:18 PM 39.2231 -93.6756 275° West 366 421 40,000  Level Kansas City Center
Tue 12:01:20 PM 39.2306 -93.8017 274° West 369 425 40,000  Level Kansas City Center
Tue 12:02:22 PM 39.2383 -93.9272 275° West 369 425 40,000  Level Kansas City Center
Tue 12:03:23 PM 39.2481 -94.0742 275° West 368 423 40,000  Level Kansas City Center
Tue 12:04:25 PM 39.2550 -94.2000 274° West 368 423 40,000  Level Kansas City Center
Tue 12:05:26 PM 39.2636 -94.3458 274° West 366 421 40,000  Level Kansas City Center
Tue 12:06:28 PM 39.2711 -94.4717 274° West 367 422 40,000  Level Kansas City Center
Tue 12:07:30 PM 39.2797 -94.6181 274° West 368 423 40,000  Level Kansas City Center
Tue 12:08:31 PM 39.2844 -94.7431 273° West 365 420 40,000  Level Kansas City Center
Tue 12:09:33 PM 39.2878 -94.8669 272° West 364 419 40,000  Level Kansas City Center
Tue 12:10:34 PM 39.2900 -95.0125 271° West 365 420 40,000  Level Kansas City Center
Tue 12:11:36 PM 39.2911 -95.1514 271° West 366 421 40,000  Level Kansas City Center
Tue 12:12:37 PM 39.2933 -95.2878 271° West 363 418 40,000  Level Kansas City Center
Tue 12:13:39 PM 39.2944 -95.4156 271° West 371 427 40,000  Level Kansas City Center
Tue 12:14:40 PM 39.2983 -95.5517 272° West 371 427 40,000  Level Kansas City Center
Tue 12:15:42 PM 39.2986 -95.6800 270° West 374 430 40,000  Level Kansas City Center
Tue 12:16:44 PM 39.3000 -95.8311 271° West 377 434 40,000  Level Kansas City Center
Tue 12:17:45 PM 39.3008 -95.9608 271° West 379 436 40,000  Level Kansas City Center
Tue 12:18:47 PM 39.3022 -96.1122 271° West 379 436 40,000  Level Kansas City Center
Tue 12:19:48 PM 39.3044 -96.2486 271° West 377 434 40,000  Level Kansas City Center
Tue 12:20:50 PM 39.3047 -96.3842 270° West 379 436 40,000  Level Kansas City Center
Tue 12:21:51 PM 39.3050 -96.5236 270° West 379 436 40,000  Level Kansas City Center
Tue 12:22:53 PM 39.3053 -96.6533 270° West 378 435 40,000  Level Kansas City Center
Tue 12:23:54 PM 39.3061 -96.8075 270° West 383 441 40,000  Level Kansas City Center
Tue 12:24:56 PM 39.3056 -96.9394 270° West 384 442 40,000  Level Kansas City Center
Tue 12:25:57 PM 39.3058 -97.0711 270° West 385 443 40,000  Level Kansas City Center
Tue 12:26:59 PM 39.3053 -97.2272 270° West 388 447 40,000  Level Kansas City Center
Tue 12:28:00 PM 39.3053 -97.3597 270° West 387 445 40,000  Level Kansas City Center
Tue 12:29:02 PM 39.3050 -97.5169 270° West 390 449 40,000  Level Kansas City Center
Tue 12:30:03 PM 39.3036 -97.6606 269° West 389 448 40,000  Level Kansas City Center
Tue 12:31:05 PM 39.3028 -97.8017 270° West 392 451 40,000  Level Kansas City Center
Tue 12:32:06 PM 39.3025 -97.9403 270° West 389 448 40,000  Level Kansas City Center
Tue 12:33:08 PM 39.3017 -98.0747 270° West 390 449 40,000  Level Kansas City Center
Tue 12:34:09 PM 39.2997 -98.2225 269° West 391 450 40,000  Level Kansas City Center
Tue 12:35:11 PM 39.2972 -98.3650 269° West 394 453 40,000  Level Kansas City Center
Tue 12:36:12 PM 39.2958 -98.5072 269° West 395 455 40,000  Level Kansas City Center
Tue 12:37:14 PM 39.2939 -98.6625 269° West 397 457 40,000  Level Kansas City Center
Tue 12:38:15 PM 39.2928 -98.7994 269° West 398 458 40,000  Level Kansas City Center
Tue 12:39:17 PM 39.2900 -98.9431 269° West 396 456 40,000  Level Kansas City Center
Tue 12:40:18 PM 39.2881 -99.0856 269° West 398 458 40,000  Level Kansas City Center
Tue 12:41:20 PM 39.2844 -99.2281 268° West 399 459 40,000  Level Kansas City Center
Tue 12:42:21 PM 39.2803 -99.4011 268° West 403 464 40,000  Level Kansas City Center
Tue 12:43:23 PM 39.2764 -99.5414 268° West 397 457 40,000  Level Kansas City Center
Tue 12:44:24 PM 39.2739 -99.6753 269° West 397 457 40,000  Level Kansas City Center
Tue 12:45:26 PM 39.2700 -99.8333 268° West 397 457 40,000  Level Kansas City Center
Tue 12:46:27 PM 39.2658 -99.9672 268° West 394 453 40,000  Level Kansas City Center
Tue 12:47:29 PM 39.2611 -100.1244 268° West 394 453 40,000  Level Kansas City Center
Tue 12:48:30 PM 39.2603 -100.2597 270° West 393 452 40,000  Level Kansas City Center
Tue 12:50:01 PM 39.2814 -100.4753 277° West 409 471 40,000  Level Denver Center
Tue 12:51:03 PM 39.2967 -100.6339 277° West 404 465 40,000  Level Denver Center
Tue 12:52:05 PM 39.3086 -100.7714 276° West 401 461 40,000  Level Denver Center
Tue 12:53:07 PM 39.3231 -100.9328 277° West 404 465 40,000  Level Denver Center
Tue 12:54:09 PM 39.3353 -101.0739 276° West 411 473 40,000  Level Denver Center
Tue 12:55:11 PM 39.3492 -101.2358 276° West 408 470 40,000  Level Denver Center
Tue 12:56:13 PM 39.3611 -101.3767 276° West 412 474 40,000  Level Denver Center
Tue 12:57:15 PM 39.3758 -101.5386 277° West 407 468 40,000  Level Denver Center
Tue 12:58:17 PM 39.3858 -101.6792 275° West 410 472 40,000  Level Denver Center
Tue 12:59:20 PM 39.3650 -101.8378 260° West 402 463 40,000  Level Denver Center
Tue 01:00:22 PM 39.3453 -101.9733 259° West 402 463 40,000  Level Denver Center
Tue 01:01:24 PM 39.3225 -102.1200 259° West 402 463 40,000  Level Denver Center
Tue 01:02:26 PM 39.3011 -102.2564 259° West 404 465 40,000  Level Denver Center
Tue 01:03:29 PM 39.2758 -102.4153 258° West 408 470 40,000  Level Denver Center
Tue 01:04:31 PM 39.2542 -102.5536 259° West 410 472 40,000  Level Denver Center
Tue 01:05:33 PM 39.2281 -102.7136 258° West 410 472 40,000  Level Denver Center
Tue 01:06:35 PM 39.2083 -102.8494 259° West 410 472 40,000  Level Denver Center
Tue 01:07:37 PM 39.1842 -102.9928 258° West 410 472 40,000  Level Denver Center
Tue 01:08:39 PM 39.1564 -103.1656 258° West 411 473 40,000  Level Denver Center
Tue 01:09:41 PM 39.1339 -103.3086 259° West 409 471 40,000  Level Denver Center
Tue 01:10:43 PM 39.1092 -103.4522 258° West 410 472 40,000  Level Denver Center
Tue 01:11:45 PM 39.0850 -103.5969 258° West 413 475 40,000  Level Denver Center
Tue 01:12:47 PM 39.0597 -103.7433 258° West 417 480 40,000  Level Denver Center
Tue 01:13:49 PM 39.0356 -103.8875 258° West 414 476 40,000  Level Denver Center
Tue 01:14:51 PM 39.0061 -104.0614 258° West 413 475 40,000  Level Denver Center
Tue 01:15:53 PM 38.9819 -104.2056 258° West 412 474 40,000  Level Denver Center
Tue 01:16:56 PM 38.9561 -104.3469 257° West 407 468 40,000  Level Denver Center
Tue 01:17:58 PM 38.9314 -104.4894 257° West 407 468 40,000  Level Denver Center
Tue 01:19:00 PM 38.9067 -104.6328 258° West 410 472 40,000  Level Denver Center
Tue 01:20:14 PM 38.8811 -104.7719 257° West 402 463 40,000  Level Denver Center
Tue 01:21:16 PM 38.8517 -104.9417 257° West 404 465 40,000  Level Denver Center
Tue 01:22:18 PM 38.8208 -105.1117 257° West 407 468 40,000  Level Denver Center
Tue 01:23:20 PM 38.7953 -105.2533 257° West 409 471 40,000  Level Denver Center
Tue 01:24:22 PM 38.7686 -105.3936 256° West 406 467 40,000  Level Denver Center
Tue 01:25:24 PM 38.7422 -105.5356 257° West 408 470 40,000  Level Denver Center
Tue 01:26:26 PM 38.7164 -105.6769 257° West 408 470 40,000  Level Denver Center
Tue 01:27:28 PM 38.6903 -105.8197 257° West 412 474 40,000  Level Denver Center
Tue 01:28:30 PM 38.6569 -105.9897 256° West 410 472 40,000  Level Denver Center
Tue 01:29:32 PM 38.6297 -106.1308 256° West 409 471 40,000  Level Denver Center
Tue 01:30:34 PM 38.6047 -106.2656 257° West 412 474 40,000  Level Denver Center
Tue 01:31:36 PM 38.5753 -106.4086 255° West 414 476 40,000  Level Denver Center
Tue 01:32:38 PM 38.5492 -106.5506 257° West 410 472 40,000  Level Denver Center
Tue 01:33:40 PM 38.5208 -106.6942 256° West 414 476 40,000  Level Denver Center
Tue 01:34:42 PM 38.4864 -106.8653 256° West 414 476 40,000  Level Denver Center
Tue 01:35:44 PM 38.4581 -107.0081 256° West 414 476 40,000  Level Denver Center
Tue 01:36:46 PM 38.4169 -107.1453 249° West 417 480 40,000  Level Denver Center
Tue 01:37:48 PM 38.3731 -107.2764 247° West 410 472 40,000  Level Denver Center
Tue 01:38:50 PM 38.3244 -107.4242 247° West 406 467 40,000  Level Denver Center
Tue 01:39:52 PM 38.2825 -107.5492 247° West 403 464 40,000  Level Denver Center
Tue 01:40:54 PM 38.2342 -107.6953 247° West 401 461 40,000  Level Denver Center
Tue 01:41:56 PM 38.1914 -107.8217 247° West 404 465 40,000  Level Denver Center
Tue 01:42:58 PM 38.1486 -107.9475 247° West 404 465 40,000  Level Denver Center
Tue 01:44:00 PM 38.0989 -108.0936 247° West 404 465 40,000  Level Denver Center
Tue 01:45:02 PM 38.0572 -108.2203 247° West 402 463 40,000  Level Denver Center
Tue 01:46:03 PM 38.0069 -108.3631 246° West 400 460 40,000  Level Denver Center
Tue 01:47:05 PM 37.9636 -108.4858 246° West 399 459 40,000  Level Denver Center
Tue 01:48:07 PM 37.9133 -108.6300 246° West 400 460 40,000  Level Denver Center
Tue 01:49:09 PM 37.8708 -108.7522 246° West 399 459 40,000  Level Denver Center
Tue 01:50:11 PM 37.8203 -108.8983 246° West 401 461 40,000  Level Denver Center
Tue 01:51:13 PM 37.7864 -109.0231 251° West 393 452 40,000  Level Denver Center
Tue 01:52:15 PM 37.7544 -109.1503 252° West 396 456 40,000  Level Denver Center
Tue 01:53:17 PM 37.7169 -109.2978 252° West 397 457 40,000  Level Denver Center
Tue 01:54:18 PM 37.6856 -109.4253 253° West 399 459 40,000 -146 Level Denver Center
Tue 01:55:20 PM 37.6489 -109.5711 252° West 393 452 39,700 -581 Descending Denver Center
Tue 01:56:22 PM 37.6181 -109.6961 253° West 391 450 38,800 -968 Descending Denver Center
Tue 01:57:24 PM 37.5794 -109.8458 252° West 402 463 37,700 -919 Descending Denver Center
Tue 01:58:26 PM 37.5467 -109.9750 252° West 405 466 36,900 -968 Descending Denver Center
Tue 01:59:28 PM 37.5086 -110.1222 252° West 398 458 35,700 -968 Descending Denver Center
Tue 02:00:30 PM 37.4794 -110.2344 252° West 392 451 34,900 -927 Descending Denver Center
Tue 02:01:31 PM 37.4381 -110.3906 252° West 393 452 33,800 -1,073 Descending Denver Center
Tue 02:02:33 PM 37.4064 -110.5175 253° West 384 442 32,700 -968 Descending Denver Center
Tue 02:03:35 PM 37.3725 -110.6433 251° West 381 438 31,800 -968 Descending Denver Center
Tue 02:04:37 PM 37.3406 -110.7678 252° West 377 434 30,700 -871 Descending Denver Center
Tue 02:05:39 PM 37.3081 -110.8872 251° West 366 421 30,000 -339 Descending Denver Center
Tue 02:06:41 PM 37.2775 -111.0042 252° West 356 410 30,000  Level Denver Center
Tue 02:07:42 PM 37.2394 -111.1478 252° West 363 418 30,000  Level Denver Center
Tue 02:08:44 PM 37.2067 -111.2694 251° West 368 423 30,000  Level Denver Center
Tue 02:09:46 PM 37.1733 -111.3900 251° West 367 422 30,000  Level Denver Center
Tue 02:10:48 PM 37.1403 -111.5117 251° West 369 425 30,000  Level Denver Center
Tue 02:11:50 PM 37.1119 -111.6347 254° West 371 427 30,000  Level Denver Center
Tue 02:12:51 PM 37.0892 -111.7561 257° West 363 418 30,000  Level Denver Center
Tue 02:13:53 PM 37.0664 -111.8736 256° West 353 406 30,000 -339 Level Denver Center
Tue 02:14:55 PM 37.0406 -111.9906 255° West 350 403 29,300 -968 Descending Denver Center
Tue 02:15:57 PM 37.0156 -112.1139 256° West 318 366 28,000 -1,125 Descending Denver Center
Tue 02:17:03 PM 36.9931 -112.2131 254° West 295 339 26,900 -979 Descending Los Angeles Center
Tue 02:18:18 PM 36.9675 -112.3294 255° West 290 334 25,700 -1,051 Descending Los Angeles Center
Tue 02:19:20 PM 36.9422 -112.4478 255° West 291 335 24,500 -823 Descending Los Angeles Center
Tue 02:20:22 PM 36.9206 -112.5464 255° West 292 336 24,000 -242 Descending Los Angeles Center
Tue 02:21:24 PM 36.9008 -112.6442 256° West 289 333 24,000  Level Los Angeles Center
Tue 02:22:26 PM 36.8792 -112.7397 254° West 287 330 24,000  Level Los Angeles Center
Tue 02:23:29 PM 36.8583 -112.8372 255° West 289 333 24,000  Level Los Angeles Center
Tue 02:24:31 PM 36.8364 -112.9350 254° West 291 335 24,000  Level Los Angeles Center
Tue 02:25:33 PM 36.8097 -113.0517 254° West 291 335 24,000  Level Los Angeles Center
Tue 02:26:35 PM 36.7881 -113.1494 255° West 292 336 24,000  Level Los Angeles Center
Tue 02:27:37 PM 36.7669 -113.2472 255° West 292 336 24,000  Level Los Angeles Center
Tue 02:28:39 PM 36.7456 -113.3447 255° West 292 336 24,000  Level Los Angeles Center
Tue 02:29:41 PM 36.7225 -113.4450 254° West 299 344 24,000  Level Los Angeles Center
Tue 02:30:43 PM 36.7000 -113.5422 254° West 295 339 24,000  Level Los Angeles Center
Tue 02:31:46 PM 36.6733 -113.6622 255° West 299 344 24,000  Level Los Angeles Center
Tue 02:32:48 PM 36.6503 -113.7619 254° West 300 345 24,000 -194 Level Los Angeles Center
Tue 02:33:50 PM 36.6272 -113.8592 254° West 295 339 23,600 -387 Descending Los Angeles Center
Tue 02:35:00 PM 36.2802 -114.4546 230° Southwest  Level FlightAware Approximate
Tue 02:42:00 PM 36.0667 -115.1500 219° Southwest  Level FlightAware Approximate

Login

Don't have an account? Register now (free) for customized features, flight alerts, and more!